Time;durP1;ratioP1;P1;durP2;ratioP2;P2;SDS_P1;SDS_P2;PMS_P1;PMS_P2;Temp;Humidity;BMP_temperature;BMP_pressure;BME280_temperature;BME280_humidity;BME280_pressure;Samples;Min_cycle;Max_cycle;Signal;HPM_P1;HPM_P2
2021/04/06 00:01:45;;;;;;;13.63;3.75;;;;;;;;;;5060612;28;20033;-77
2021/04/06 00:04:19;;;;;;;9.20;3.65;;;;;;;;;;5073668;28;20021;-77
2021/04/06 00:06:46;;;;;;;12.95;3.72;;;;;;;;;;5073927;28;20028;-77
2021/04/06 00:09:20;;;;;;;10.50;3.15;;;;;;;;;;5073951;28;20024;-77
2021/04/06 00:11:47;;;;;;;10.55;4.00;;;;;;;;;;5050196;28;20108;-77
2021/04/06 00:14:14;;;;;;;8.60;3.38;;;;;;;;;;5061780;28;20397;-77
2021/04/06 00:16:45;;;;;;;10.93;3.55;;;;;;;;;;5053518;28;20048;-77
2021/04/06 00:19:11;;;;;;;12.13;3.45;;;;;;;;;;5035503;28;20123;-77
2021/04/06 00:21:38;;;;;;;6.38;3.30;;;;;;;;;;5052703;28;20029;-77
2021/04/06 00:24:05;;;;;;;12.90;3.75;;;;;;;;;;5053589;28;20092;-77
2021/04/06 00:26:45;;;;;;;12.45;3.92;;;;;;;;;;5053311;28;20047;-77
2021/04/06 00:29:11;;;;;;;9.93;3.72;;;;;;;;;;5035458;28;20116;-78
2021/04/06 00:31:38;;;;;;;12.05;3.88;;;;;;;;;;5052430;28;20104;-77
2021/04/06 00:34:04;;;;;;;9.98;4.22;;;;;;;;;;5053639;28;20029;-77
2021/04/06 00:36:30;;;;;;;14.48;3.60;;;;;;;;;;5053149;28;20432;-77
2021/04/06 00:38:56;;;;;;;17.35;4.78;;;;;;;;;;5053347;28;20029;-77
2021/04/06 00:41:23;;;;;;;12.43;4.40;;;;;;;;;;5052938;28;20033;-77
2021/04/06 00:43:49;;;;;;;10.13;3.92;;;;;;;;;;5052934;28;20033;-77
2021/04/06 00:46:25;;;;;;;12.95;4.18;;;;;;;;;;5052888;28;20120;-77
2021/04/06 00:48:53;;;;;;;12.77;4.38;;;;;;;;;;5035144;28;20040;-77
2021/04/06 00:51:20;;;;;;;12.45;4.50;;;;;;;;;;5052937;28;20024;-77
2021/04/06 00:53:55;;;;;;;9.27;3.45;;;;;;;;;;5052686;28;20488;-78
2021/04/06 00:56:27;;;;;;;10.55;4.45;;;;;;;;;;5052661;28;20035;-78
2021/04/06 00:58:54;;;;;;;10.52;3.97;;;;;;;;;;5052953;28;20108;-77
2021/04/06 01:01:34;;;;;;;18.73;4.68;;;;;;;;;;5052816;28;20021;-78
2021/04/06 01:04:02;;;;;;;11.50;4.30;;;;;;;;;;5053378;28;20025;-78
2021/04/06 01:06:28;;;;;;;11.68;4.07;;;;;;;;;;5052746;28;20103;-77
2021/04/06 01:08:54;;;;;;;11.85;4.07;;;;;;;;;;5053232;28;20032;-78
2021/04/06 01:11:22;;;;;;;15.80;4.20;;;;;;;;;;5052535;28;20029;-78
2021/04/06 01:13:48;;;;;;;13.20;4.13;;;;;;;;;;5060906;28;20040;-78
2021/04/06 01:16:14;;;;;;;10.55;3.97;;;;;;;;;;5073177;28;20230;-78
2021/04/06 01:18:41;;;;;;;11.27;4.28;;;;;;;;;;5071416;28;20556;-78
2021/04/06 01:21:08;;;;;;;19.73;4.57;;;;;;;;;;5072778;28;20083;-78
2021/04/06 01:23:35;;;;;;;11.93;4.10;;;;;;;;;;5072308;28;20051;-78
2021/04/06 01:26:01;;;;;;;11.82;3.88;;;;;;;;;;5072602;28;20033;-77
2021/04/06 01:28:28;;;;;;;12.85;4.15;;;;;;;;;;5055106;28;20363;-77
2021/04/06 01:30:54;;;;;;;16.23;4.60;;;;;;;;;;5072494;28;20036;-78
2021/04/06 01:33:24;;;;;;;10.30;4.40;;;;;;;;;;5072527;28;20589;-78
2021/04/06 01:35:52;;;;;;;12.75;4.68;;;;;;;;;;5073028;28;20395;-79
2021/04/06 01:38:18;;;;;;;11.48;4.75;;;;;;;;;;5055040;28;20028;-78
2021/04/06 01:40:45;;;;;;;8.38;4.07;;;;;;;;;;5073038;28;20540;-78
2021/04/06 01:43:12;;;;;;;13.20;4.65;;;;;;;;;;5055081;28;20078;-78
2021/04/06 01:45:46;;;;;;;16.30;4.45;;;;;;;;;;5072735;28;20040;-78
2021/04/06 01:48:16;;;;;;;13.63;4.38;;;;;;;;;;5054834;28;20518;-77
2021/04/06 01:50:43;;;;;;;9.13;4.10;;;;;;;;;;5074494;28;20025;-77
2021/04/06 01:53:10;;;;;;;16.75;4.20;;;;;;;;;;5076349;28;20021;-78
2021/04/06 01:55:39;;;;;;;12.35;4.30;;;;;;;;;;5077155;28;20387;-77
2021/04/06 01:58:06;;;;;;;10.20;4.28;;;;;;;;;;5076343;28;20055;-78
2021/04/06 02:03:19;;;;;;;12.50;4.35;;;;;;;;;;5044977;28;20032;-78
2021/04/06 02:05:46;;;;;;;14.68;5.20;;;;;;;;;;5058390;28;20042;-78
2021/04/06 02:08:16;;;;;;;15.45;4.53;;;;;;;;;;5076348;28;20086;-78
2021/04/06 02:10:43;;;;;;;8.07;4.85;;;;;;;;;;5076927;28;20528;-78
2021/04/06 02:13:13;;;;;;;9.15;4.32;;;;;;;;;;5075736;28;20041;-78
2021/04/06 02:15:41;;;;;;;11.50;4.53;;;;;;;;;;5058322;28;20029;-78
2021/04/06 02:18:07;;;;;;;11.45;4.50;;;;;;;;;;5076269;28;20043;-78
2021/04/06 02:20:33;;;;;;;17.95;5.40;;;;;;;;;;5076211;28;20029;-78
2021/04/06 02:23:03;;;;;;;13.70;4.90;;;;;;;;;;5076473;28;20475;-77
2021/04/06 02:25:30;;;;;;;12.15;5.10;;;;;;;;;;5076545;28;20024;-77
2021/04/06 02:27:57;;;;;;;13.90;4.82;;;;;;;;;;5057840;28;20127;-77
2021/04/06 02:30:33;;;;;;;14.23;5.25;;;;;;;;;;5076627;28;20025;-77
2021/04/06 02:33:00;;;;;;;15.23;5.28;;;;;;;;;;5075669;28;20021;-77
2021/04/06 02:35:26;;;;;;;12.93;4.28;;;;;;;;;;5076291;28;20047;-78
2021/04/06 02:37:53;;;;;;;9.15;4.68;;;;;;;;;;5075707;28;20025;-77
2021/04/06 02:40:20;;;;;;;11.27;4.50;;;;;;;;;;5075813;28;20099;-77
2021/04/06 02:42:46;;;;;;;12.95;4.60;;;;;;;;;;5075834;28;20471;-77
2021/04/06 02:45:16;;;;;;;12.30;5.30;;;;;;;;;;5075619;28;20031;-77
2021/04/06 02:47:48;;;;;;;14.88;4.85;;;;;;;;;;5057319;28;20033;-77
2021/04/06 02:50:19;;;;;;;13.70;5.40;;;;;;;;;;5057509;28;20035;-77
2021/04/06 02:52:46;;;;;;;9.45;4.70;;;;;;;;;;5075337;28;20024;-77
2021/04/06 02:55:12;;;;;;;14.73;4.57;;;;;;;;;;5075362;28;20025;-77
2021/04/06 02:57:42;;;;;;;14.57;5.30;;;;;;;;;;5075177;28;20029;-78
2021/04/06 03:00:09;;;;;;;9.40;4.50;;;;;;;;;;5075042;28;20036;-77
2021/04/06 03:02:39;;;;;;;14.90;4.85;;;;;;;;;;5074885;28;20090;-77
2021/04/06 03:05:05;;;;;;;16.08;5.05;;;;;;;;;;5067541;28;20058;-77
2021/04/06 03:07:31;;;;;;;12.48;4.22;;;;;;;;;;5074907;28;20032;-77
2021/04/06 03:09:58;;;;;;;14.85;4.82;;;;;;;;;;5075397;28;20407;-77
2021/04/06 03:12:31;;;;;;;16.75;4.53;;;;;;;;;;5074149;28;20085;-77
2021/04/06 03:14:58;;;;;;;12.15;4.60;;;;;;;;;;5074925;28;20044;-78
2021/04/06 03:17:25;;;;;;;17.50;5.00;;;;;;;;;;5074689;28;20380;-77
2021/04/06 03:19:57;;;;;;;8.65;4.13;;;;;;;;;;5074854;28;20032;-77
2021/04/06 03:22:25;;;;;;;11.23;4.55;;;;;;;;;;5074540;28;20020;-78
2021/04/06 03:24:51;;;;;;;12.98;4.93;;;;;;;;;;5074876;28;20082;-78
2021/04/06 03:27:27;;;;;;;10.52;4.68;;;;;;;;;;5075007;28;20100;-77
2021/04/06 03:29:53;;;;;;;17.70;5.20;;;;;;;;;;5056960;28;20403;-77
2021/04/06 03:32:21;;;;;;;14.65;4.88;;;;;;;;;;5056456;28;20443;-77
2021/04/06 03:34:49;;;;;;;11.38;4.72;;;;;;;;;;5074627;28;20024;-77
2021/04/06 03:37:15;;;;;;;11.20;4.50;;;;;;;;;;5074401;28;20024;-77
2021/04/06 03:39:42;;;;;;;14.05;4.85;;;;;;;;;;5074647;28;20028;-77
2021/04/06 03:42:08;;;;;;;10.40;5.05;;;;;;;;;;5074102;28;20103;-77
2021/04/06 03:44:35;;;;;;;11.75;3.85;;;;;;;;;;5056440;28;20028;-77
2021/04/06 03:47:02;;;;;;;12.75;4.72;;;;;;;;;;5074215;28;20028;-77
2021/04/06 03:49:30;;;;;;;11.02;4.47;;;;;;;;;;5074186;28;20016;-77
2021/04/06 03:51:58;;;;;;;11.10;4.72;;;;;;;;;;5056003;28;20027;-77
2021/04/06 03:54:45;;;;;;;11.73;4.55;;;;;;;;;;5056306;28;20016;-77
2021/04/06 03:57:57;;;;;;;11.60;4.60;;;;;;;;;;5074254;28;20025;-77
2021/04/06 04:00:17;;;;;;;10.50;3.75;;;;;;;;;;5070624;28;20031;-77
2021/04/06 04:02:43;;;;;;;11.50;4.43;;;;;;;;;;5070234;28;20028;-78
2021/04/06 04:05:10;;;;;;;12.00;4.32;;;;;;;;;;5073389;28;20020;-77
2021/04/06 04:07:36;;;;;;;12.63;4.70;;;;;;;;;;5055574;28;20032;-77
2021/04/06 04:10:06;;;;;;;12.52;4.65;;;;;;;;;;5073755;28;20028;-77
2021/04/06 04:12:32;;;;;;;14.40;4.78;;;;;;;;;;5073218;28;20031;-77
2021/04/06 04:14:58;;;;;;;11.10;4.32;;;;;;;;;;5073512;28;20095;-77
2021/04/06 04:17:24;;;;;;;11.73;4.57;;;;;;;;;;5073589;28;20085;-77
2021/04/06 04:19:50;;;;;;;12.48;4.60;;;;;;;;;;5073365;28;20028;-77
2021/04/06 04:22:17;;;;;;;12.32;4.97;;;;;;;;;;5072999;28;20024;-77
2021/04/06 04:24:43;;;;;;;11.30;4.70;;;;;;;;;;5073465;28;20072;-77
2021/04/06 04:27:09;;;;;;;16.35;5.20;;;;;;;;;;5073691;28;20028;-77
2021/04/06 04:29:35;;;;;;;14.48;4.70;;;;;;;;;;5055345;28;20120;-77
2021/04/06 04:32:01;;;;;;;12.63;4.65;;;;;;;;;;5073118;28;20021;-77
2021/04/06 04:34:27;;;;;;;9.80;4.80;;;;;;;;;;5073146;28;20024;-77
2021/04/06 04:36:53;;;;;;;10.88;4.40;;;;;;;;;;5055223;28;20013;-77
2021/04/06 04:39:19;;;;;;;6.30;3.83;;;;;;;;;;5073222;28;20024;-77
2021/04/06 04:41:45;;;;;;;11.27;4.60;;;;;;;;;;5073421;28;20457;-77
2021/04/06 04:44:11;;;;;;;10.23;5.05;;;;;;;;;;5055082;28;20492;-77
2021/04/06 04:46:37;;;;;;;15.07;4.88;;;;;;;;;;5073300;28;20498;-77
2021/04/06 04:49:04;;;;;;;15.27;5.55;;;;;;;;;;5073131;28;20109;-77
2021/04/06 04:51:30;;;;;;;11.43;4.88;;;;;;;;;;5072860;28;20024;-77
2021/04/06 04:53:56;;;;;;;16.92;5.13;;;;;;;;;;5055001;28;20017;-77
2021/04/06 04:56:22;;;;;;;12.38;5.07;;;;;;;;;;5073226;28;20024;-77
2021/04/06 04:58:48;;;;;;;14.70;5.07;;;;;;;;;;5072725;28;20026;-77
2021/04/06 05:01:14;;;;;;;10.75;4.57;;;;;;;;;;5073014;28;20104;-77
2021/04/06 05:03:40;;;;;;;14.95;5.45;;;;;;;;;;5072375;28;20032;-77
2021/04/06 05:06:06;;;;;;;11.18;5.07;;;;;;;;;;5072933;28;20032;-77
2021/04/06 05:08:33;;;;;;;11.88;4.90;;;;;;;;;;5072950;28;20025;-77
2021/04/06 05:10:59;;;;;;;15.88;4.85;;;;;;;;;;5072919;28;20024;-77
2021/04/06 05:13:26;;;;;;;14.18;4.65;;;;;;;;;;5072597;28;20040;-77
2021/04/06 05:15:52;;;;;;;16.92;5.57;;;;;;;;;;5072810;28;20028;-77
2021/04/06 05:18:18;;;;;;;12.00;5.00;;;;;;;;;;5072845;28;20436;-77
2021/04/06 05:20:44;;;;;;;14.18;5.20;;;;;;;;;;5072586;28;20028;-77
2021/04/06 05:23:11;;;;;;;13.30;4.70;;;;;;;;;;5072221;28;20105;-77
2021/04/06 05:25:37;;;;;;;12.05;5.30;;;;;;;;;;5073913;28;20028;-77
2021/04/06 05:28:03;;;;;;;10.57;5.22;;;;;;;;;;5077085;28;20107;-77
2021/04/06 05:30:29;;;;;;;10.25;4.88;;;;;;;;;;5076551;28;20099;-77
2021/04/06 05:32:55;;;;;;;12.32;4.65;;;;;;;;;;5076980;28;20107;-77
2021/04/06 05:35:21;;;;;;;13.40;4.68;;;;;;;;;;5058569;28;20070;-77
2021/04/06 05:37:48;;;;;;;10.27;4.72;;;;;;;;;;5076949;28;20487;-77
2021/04/06 05:40:14;;;;;;;14.80;5.05;;;;;;;;;;5076263;28;20033;-77
2021/04/06 05:42:40;;;;;;;13.80;4.47;;;;;;;;;;5058864;28;20028;-77
2021/04/06 05:45:07;;;;;;;11.95;4.95;;;;;;;;;;5076433;28;20104;-77
2021/04/06 05:47:36;;;;;;;14.23;4.55;;;;;;;;;;5076689;28;20111;-77
2021/04/06 05:50:03;;;;;;;13.70;5.00;;;;;;;;;;5076146;28;20119;-77
2021/04/06 05:52:32;;;;;;;13.82;5.05;;;;;;;;;;5076102;28;20487;-77
2021/04/06 05:55:00;;;;;;;11.70;4.97;;;;;;;;;;5076210;28;20051;-77
2021/04/06 05:57:26;;;;;;;14.60;5.70;;;;;;;;;;5076580;28;20391;-77
2021/04/06 05:59:52;;;;;;;15.65;5.20;;;;;;;;;;5075794;28;20043;-77
2021/04/06 06:02:18;;;;;;;13.68;5.22;;;;;;;;;;5075827;28;20554;-77
2021/04/06 06:04:45;;;;;;;14.38;4.82;;;;;;;;;;5076099;28;20067;-77
2021/04/06 06:07:12;;;;;;;19.10;5.38;;;;;;;;;;5058276;28;20368;-77
2021/04/06 06:09:38;;;;;;;11.63;4.72;;;;;;;;;;5076282;28;20025;-77
2021/04/06 06:12:06;;;;;;;16.77;5.47;;;;;;;;;;5057442;28;20024;-78
2021/04/06 06:14:42;;;;;;;14.88;5.15;;;;;;;;;;5057812;28;20500;-77
2021/04/06 06:17:29;;;;;;;15.10;4.88;;;;;;;;;;5075579;28;20021;-77
2021/04/06 06:19:56;;;;;;;15.55;4.38;;;;;;;;;;5075552;28;20487;-77
2021/04/06 06:22:26;;;;;;;7.95;3.03;;;;;;;;;;5075022;28;20016;-77
2021/04/06 06:25:13;;;;;;;5.80;1.88;;;;;;;;;;5057538;28;20024;-77
2021/04/06 06:27:49;;;;;;;5.45;1.23;;;;;;;;;;5075930;28;20487;-77
2021/04/06 06:30:19;;;;;;;7.05;1.30;;;;;;;;;;5057345;28;20024;-77
2021/04/06 06:32:45;;;;;;;5.57;1.25;;;;;;;;;;5075732;28;20519;-77
2021/04/06 06:35:11;;;;;;;4.07;1.67;;;;;;;;;;5075280;28;20032;-77
2021/04/06 06:37:37;;;;;;;7.97;2.05;;;;;;;;;;5075070;28;20497;-77
2021/04/06 06:40:05;;;;;;;12.43;2.47;;;;;;;;;;5074672;28;20112;-77
2021/04/06 06:42:35;;;;;;;17.73;4.72;;;;;;;;;;5057161;28;20066;-77
2021/04/06 06:45:03;;;;;;;11.00;4.40;;;;;;;;;;5057241;28;20119;-77
2021/04/06 06:47:31;;;;;;;9.20;4.70;;;;;;;;;;5074868;28;20078;-77
2021/04/06 06:50:07;;;;;;;18.83;5.65;;;;;;;;;;5074867;28;20461;-77
2021/04/06 06:52:33;;;;;;;18.95;5.68;;;;;;;;;;5074604;28;20146;-77
2021/04/06 06:55:02;;;;;;;13.43;5.10;;;;;;;;;;5075111;28;20104;-77
2021/04/06 06:57:29;;;;;;;13.02;4.97;;;;;;;;;;5056929;28;20375;-77
2021/04/06 07:00:02;;;;;;;13.65;4.85;;;;;;;;;;5056873;28;20025;-77
2021/04/06 07:02:29;;;;;;;11.13;4.30;;;;;;;;;;5075269;28;20027;-73
2021/04/06 07:05:15;;;;;;;10.07;3.42;;;;;;;;;;5072643;28;20033;-74
2021/04/06 07:08:02;;;;;;;5.35;2.92;;;;;;;;;;5056211;28;20414;-72
2021/04/06 07:10:30;;;;;;;8.13;3.22;;;;;;;;;;5072388;28;20020;-72
2021/04/06 07:13:07;;;;;;;6.80;2.45;;;;;;;;;;5067911;28;20051;-74
2021/04/06 07:15:36;;;;;;;5.43;2.30;;;;;;;;;;5040770;28;20395;-73
2021/04/06 07:18:06;;;;;;;6.70;1.95;;;;;;;;;;5075027;28;20105;-72
2021/04/06 07:20:34;;;;;;;7.95;3.90;;;;;;;;;;5085473;28;20025;-71
2021/04/06 07:23:03;;;;;;;5.40;1.67;;;;;;;;;;5083370;28;20025;-72
2021/04/06 07:25:30;;;;;;;6.22;2.30;;;;;;;;;;5072244;28;20055;-72
2021/04/06 07:27:56;;;;;;;7.20;1.90;;;;;;;;;;5074968;28;20439;-72
2021/04/06 07:30:22;;;;;;;6.53;2.08;;;;;;;;;;5091181;28;20055;-73
2021/04/06 07:32:49;;;;;;;3.03;1.48;;;;;;;;;;5054183;28;20486;-72
2021/04/06 07:35:18;;;;;;;9.18;1.60;;;;;;;;;;5065382;28;20032;-72
2021/04/06 07:37:45;;;;;;;5.43;1.95;;;;;;;;;;5053260;28;20020;-73
2021/04/06 07:40:13;;;;;;;5.65;1.98;;;;;;;;;;5055368;28;20112;-72
2021/04/06 07:42:40;;;;;;;4.25;1.17;;;;;;;;;;5054407;28;20020;-71
2021/04/06 07:45:29;;;;;;;5.18;1.40;;;;;;;;;;5078839;28;20032;-72
2021/04/06 07:47:56;;;;;;;8.52;1.55;;;;;;;;;;5064001;28;20115;-72
2021/04/06 07:50:42;;;;;;;2.45;1.30;;;;;;;;;;5076001;28;20024;-74
2021/04/06 07:53:28;;;;;;;3.28;1.17;;;;;;;;;;5075824;28;20069;-74
2021/04/06 07:55:58;;;;;;;3.83;1.30;;;;;;;;;;5056167;28;20399;-74
2021/04/06 07:58:44;;;;;;;4.60;1.42;;;;;;;;;;5081588;28;20025;-74
2021/04/06 08:01:12;;;;;;;4.47;1.40;;;;;;;;;;5071677;28;20497;-74
2021/04/06 08:03:50;;;;;;;5.68;1.65;;;;;;;;;;5051023;28;20028;-74
2021/04/06 08:06:23;;;;;;;10.93;1.67;;;;;;;;;;5065096;28;20024;-73
2021/04/06 08:08:49;;;;;;;9.63;2.17;;;;;;;;;;5085443;28;20021;-74
2021/04/06 08:11:16;;;;;;;4.50;1.65;;;;;;;;;;5082831;28;20051;-74
2021/04/06 08:13:43;;;;;;;4.80;1.15;;;;;;;;;;5080788;28;20425;-74
2021/04/06 08:16:12;;;;;;;4.38;1.20;;;;;;;;;;5084047;28;20021;-73
2021/04/06 08:19:04;;;;;;;6.25;1.75;;;;;;;;;;5085547;28;20103;-75
2021/04/06 08:21:30;;;;;;;7.80;1.40;;;;;;;;;;5080203;28;20102;-74
2021/04/06 08:23:56;;;;;;;5.32;1.20;;;;;;;;;;5088818;28;20088;-74
2021/04/06 08:26:35;;;;;;;7.72;1.92;;;;;;;;;;5085103;28;20012;-74
2021/04/06 08:29:20;;;;;;;5.95;1.42;;;;;;;;;;5087571;28;20024;-74
2021/04/06 08:31:46;;;;;;;3.55;1.35;;;;;;;;;;5084887;28;21332;-73
2021/04/06 08:34:31;;;;;;;5.20;1.92;;;;;;;;;;5071468;28;20386;-73
2021/04/06 08:37:08;;;;;;;5.55;1.20;;;;;;;;;;5088034;28;20023;-74
2021/04/06 08:39:34;;;;;;;5.28;1.40;;;;;;;;;;5088985;28;20459;-73
2021/04/06 08:42:01;;;;;;;7.38;1.48;;;;;;;;;;5082050;28;20028;-73
2021/04/06 08:44:27;;;;;;;3.25;1.20;;;;;;;;;;5091155;28;20529;-73
2021/04/06 08:46:53;;;;;;;4.45;1.40;;;;;;;;;;5077974;28;20096;-72
2021/04/06 08:49:22;;;;;;;3.40;1.38;;;;;;;;;;5086061;28;20046;-73
2021/04/06 08:51:51;;;;;;;8.02;1.50;;;;;;;;;;5088778;28;20051;-74
2021/04/06 08:54:19;;;;;;;4.13;1.20;;;;;;;;;;5071761;28;20045;-73
2021/04/06 08:56:50;;;;;;;5.93;1.65;;;;;;;;;;5076986;28;20499;-73
2021/04/06 08:59:33;;;;;;;4.68;1.48;;;;;;;;;;5084381;28;20060;-74
2021/04/06 09:01:59;;;;;;;3.50;1.17;;;;;;;;;;5089252;28;20020;-73
2021/04/06 09:04:35;;;;;;;4.68;1.35;;;;;;;;;;5090696;28;20068;-75
2021/04/06 09:07:01;;;;;;;2.30;1.00;;;;;;;;;;5090347;28;20553;-74
2021/04/06 09:09:28;;;;;;;2.92;1.30;;;;;;;;;;5087561;28;20436;-74
2021/04/06 09:11:55;;;;;;;2.97;1.40;;;;;;;;;;5062658;28;20031;-73
2021/04/06 09:14:22;;;;;;;2.75;1.27;;;;;;;;;;5062603;28;20045;-74
2021/04/06 09:16:50;;;;;;;3.47;1.30;;;;;;;;;;5086008;28;20020;-74
2021/04/06 09:19:17;;;;;;;2.65;1.20;;;;;;;;;;5086082;28;20031;-73
2021/04/06 09:21:47;;;;;;;4.45;1.48;;;;;;;;;;5087920;28;20028;-74
2021/04/06 09:24:15;;;;;;;6.43;1.77;;;;;;;;;;5090098;28;20028;-74
2021/04/06 09:26:42;;;;;;;10.55;1.73;;;;;;;;;;5082687;28;20073;-74
2021/04/06 09:29:10;;;;;;;6.45;2.40;;;;;;;;;;5088756;28;20016;-74
2021/04/06 09:31:39;;;;;;;7.38;2.17;;;;;;;;;;5088329;28;20020;-74
2021/04/06 09:34:09;;;;;;;8.65;2.13;;;;;;;;;;5070313;28;20024;-74
2021/04/06 09:36:35;;;;;;;12.52;2.30;;;;;;;;;;5072255;28;20123;-74
2021/04/06 09:39:03;;;;;;;5.32;1.38;;;;;;;;;;5081075;28;20683;-74
2021/04/06 09:41:30;;;;;;;7.90;1.85;;;;;;;;;;5090231;28;20030;-74
2021/04/06 09:43:57;;;;;;;8.02;1.80;;;;;;;;;;5070502;28;20455;-74
2021/04/06 09:46:32;;;;;;;6.95;1.73;;;;;;;;;;5071722;28;20024;-74
2021/04/06 09:48:58;;;;;;;9.32;1.77;;;;;;;;;;5070018;28;20066;-74
2021/04/06 09:51:24;;;;;;;8.00;1.73;;;;;;;;;;5081884;28;20020;-75
2021/04/06 09:53:50;;;;;;;8.43;1.67;;;;;;;;;;5090008;28;20023;-74
2021/04/06 09:56:16;;;;;;;8.45;1.77;;;;;;;;;;5090479;28;20016;-74
2021/04/06 09:58:43;;;;;;;4.43;1.38;;;;;;;;;;5090400;28;20024;-75
2021/04/06 10:01:22;;;;;;;7.70;1.40;;;;;;;;;;5089766;28;20428;-74
2021/04/06 10:03:50;;;;;;;9.48;2.15;;;;;;;;;;5075817;28;20020;-75
2021/04/06 10:06:16;;;;;;;9.85;2.03;;;;;;;;;;5052620;28;20024;-75
2021/04/06 10:08:42;;;;;;;3.67;1.58;;;;;;;;;;5079678;28;20047;-75
2021/04/06 10:11:09;;;;;;;8.63;1.42;;;;;;;;;;5065286;28;20024;-74
2021/04/06 10:13:37;;;;;;;7.25;1.60;;;;;;;;;;5093629;28;20487;-74
2021/04/06 10:16:09;;;;;;;5.75;1.98;;;;;;;;;;5067291;28;20020;-74
2021/04/06 10:18:42;;;;;;;4.53;1.60;;;;;;;;;;5093993;28;20059;-74
2021/04/06 10:21:37;;;;;;;6.70;1.95;;;;;;;;;;5093638;28;20382;-74
2021/04/06 10:24:05;;;;;;;4.43;1.85;;;;;;;;;;5072981;28;20067;-75
2021/04/06 10:26:31;;;;;;;3.80;1.38;;;;;;;;;;5082722;28;20024;-74
2021/04/06 10:29:05;;;;;;;9.93;2.08;;;;;;;;;;5062366;28;20034;-74
2021/04/06 10:31:48;;;;;;;9.27;1.70;;;;;;;;;;5087516;28;20467;-73
2021/04/06 10:34:14;;;;;;;5.65;1.90;;;;;;;;;;5074992;28;20031;-74
2021/04/06 10:36:53;;;;;;;6.50;1.65;;;;;;;;;;5071823;28;20111;-74
2021/04/06 10:39:29;;;;;;;9.68;2.10;;;;;;;;;;5059106;28;20398;-74
2021/04/06 10:41:55;;;;;;;12.98;1.92;;;;;;;;;;5073104;28;20425;-74
2021/04/06 10:44:22;;;;;;;8.32;1.67;;;;;;;;;;5073902;28;20406;-73
2021/04/06 10:46:48;;;;;;;8.23;1.70;;;;;;;;;;5055945;28;20062;-72
2021/04/06 10:49:14;;;;;;;8.65;1.70;;;;;;;;;;5073433;28;20528;-74
2021/04/06 10:51:47;;;;;;;11.30;2.33;;;;;;;;;;5070860;28;20379;-74
2021/04/06 10:54:16;;;;;;;7.10;1.65;;;;;;;;;;5052050;28;20115;-74
2021/04/06 10:56:44;;;;;;;4.70;1.50;;;;;;;;;;5069263;28;20099;-74
2021/04/06 10:59:11;;;;;;;3.42;1.40;;;;;;;;;;5072644;28;20057;-74
2021/04/06 11:01:37;;;;;;;6.80;1.88;;;;;;;;;;5073142;28;20021;-74
2021/04/06 11:04:09;;;;;;;6.95;2.03;;;;;;;;;;5073722;28;20028;-75
2021/04/06 11:06:37;;;;;;;4.72;1.70;;;;;;;;;;5074135;28;20032;-74
2021/04/06 11:09:11;;;;;;;11.85;1.77;;;;;;;;;;5092305;28;20028;-74
2021/04/06 11:11:37;;;;;;;7.25;1.50;;;;;;;;;;5074535;28;20027;-74
2021/04/06 11:14:05;;;;;;;12.50;2.00;;;;;;;;;;5060131;28;20045;-74
2021/04/06 11:16:31;;;;;;;10.10;1.88;;;;;;;;;;5052228;28;20040;-74
2021/04/06 11:18:59;;;;;;;4.85;1.80;;;;;;;;;;5034248;28;20029;-76
2021/04/06 11:21:26;;;;;;;12.20;1.92;;;;;;;;;;5054512;28;20024;-74
2021/04/06 11:23:52;;;;;;;6.05;2.78;;;;;;;;;;5065485;28;20418;-76
2021/04/06 11:26:18;;;;;;;7.75;1.90;;;;;;;;;;5073125;28;20397;-75
2021/04/06 11:28:45;;;;;;;6.65;1.63;;;;;;;;;;5060021;28;20402;-75
2021/04/06 11:31:11;;;;;;;5.75;1.88;;;;;;;;;;5042204;28;20029;-75
2021/04/06 11:33:38;;;;;;;5.35;1.92;;;;;;;;;;5056723;28;20025;-75
2021/04/06 11:36:04;;;;;;;8.02;1.75;;;;;;;;;;5068122;28;20025;-75
2021/04/06 11:38:30;;;;;;;5.40;1.90;;;;;;;;;;5038751;28;20108;-75
2021/04/06 11:40:56;;;;;;;3.92;1.63;;;;;;;;;;5040016;28;20032;-75
2021/04/06 11:43:22;;;;;;;4.75;1.40;;;;;;;;;;5052100;28;20424;-75
2021/04/06 11:45:48;;;;;;;9.38;1.95;;;;;;;;;;5068345;28;20032;-75
2021/04/06 11:48:15;;;;;;;4.82;1.25;;;;;;;;;;5071408;28;20036;-75
2021/04/06 11:50:41;;;;;;;13.30;1.75;;;;;;;;;;5054793;28;20456;-76
2021/04/06 11:53:07;;;;;;;6.00;1.70;;;;;;;;;;5070737;28;20025;-76
2021/04/06 11:55:33;;;;;;;4.10;1.67;;;;;;;;;;5063762;28;20388;-76
2021/04/06 11:57:59;;;;;;;6.88;1.70;;;;;;;;;;5070797;28;20537;-75
2021/04/06 12:00:25;;;;;;;7.25;1.88;;;;;;;;;;5038148;28;20472;-75
2021/04/06 12:02:51;;;;;;;6.35;1.75;;;;;;;;;;5045404;28;20542;-76
2021/04/06 12:05:17;;;;;;;5.40;2.08;;;;;;;;;;5055794;28;20033;-76
2021/04/06 12:07:44;;;;;;;4.97;1.70;;;;;;;;;;5045330;28;20059;-74
2021/04/06 12:10:10;;;;;;;4.95;1.60;;;;;;;;;;5070859;28;20035;-75
2021/04/06 12:12:37;;;;;;;5.20;1.48;;;;;;;;;;5062338;28;20032;-75
2021/04/06 12:15:03;;;;;;;6.50;1.50;;;;;;;;;;5073945;28;20070;-76
2021/04/06 12:17:30;;;;;;;5.70;1.75;;;;;;;;;;5083330;28;20502;-75
2021/04/06 12:19:57;;;;;;;2.55;1.20;;;;;;;;;;5090727;28;20491;-74
2021/04/06 12:22:23;;;;;;;4.47;1.75;;;;;;;;;;5090320;28;20028;-74
2021/04/06 12:24:49;;;;;;;3.83;1.33;;;;;;;;;;5068203;28;20135;-73
2021/04/06 12:27:16;;;;;;;6.22;3.28;;;;;;;;;;5088189;28;20020;-75
2021/04/06 12:29:42;;;;;;;2.55;1.50;;;;;;;;;;5077263;28;20102;-75
2021/04/06 12:32:08;;;;;;;5.03;1.20;;;;;;;;;;5055570;28;20052;-76
2021/04/06 12:34:34;;;;;;;3.28;1.65;;;;;;;;;;5087412;28;20031;-75
2021/04/06 12:37:00;;;;;;;8.82;1.25;;;;;;;;;;5087311;28;20021;-75
2021/04/06 12:39:26;;;;;;;4.85;1.45;;;;;;;;;;5091283;28;20032;-75
2021/04/06 12:41:52;;;;;;;8.57;1.65;;;;;;;;;;5084014;28;20044;-75
2021/04/06 12:44:18;;;;;;;5.03;1.27;;;;;;;;;;5075486;28;20024;-75
2021/04/06 12:46:44;;;;;;;7.72;1.60;;;;;;;;;;5088701;28;20515;-75
2021/04/06 12:49:10;;;;;;;6.93;1.40;;;;;;;;;;5061946;28;20043;-75
2021/04/06 12:51:36;;;;;;;10.32;1.65;;;;;;;;;;5087569;28;20036;-75
2021/04/06 12:54:03;;;;;;;5.38;1.50;;;;;;;;;;5067586;28;21612;-75
2021/04/06 12:56:29;;;;;;;5.85;1.60;;;;;;;;;;5054698;28;20047;-75
2021/04/06 12:58:55;;;;;;;4.07;1.10;;;;;;;;;;5074729;28;20765;-75
2021/04/06 13:01:21;;;;;;;7.32;1.50;;;;;;;;;;5083517;28;20029;-75
2021/04/06 13:03:47;;;;;;;4.45;1.65;;;;;;;;;;5090942;28;20462;-75
2021/04/06 13:06:13;;;;;;;7.97;1.48;;;;;;;;;;5077156;28;20375;-75
2021/04/06 13:08:39;;;;;;;3.63;1.35;;;;;;;;;;5088905;28;20028;-75
2021/04/06 13:11:05;;;;;;;2.97;1.35;;;;;;;;;;5092399;28;20028;-75
2021/04/06 13:13:32;;;;;;;5.88;1.50;;;;;;;;;;5068361;28;20036;-75
2021/04/06 13:15:58;;;;;;;3.60;1.33;;;;;;;;;;5053134;28;20021;-75
2021/04/06 13:18:24;;;;;;;2.42;1.38;;;;;;;;;;5085734;28;20111;-76
2021/04/06 13:20:51;;;;;;;4.35;1.58;;;;;;;;;;5072765;28;20063;-76
2021/04/06 13:23:17;;;;;;;3.63;1.05;;;;;;;;;;5086896;28;20106;-74
2021/04/06 13:25:43;;;;;;;2.33;1.27;;;;;;;;;;5073888;28;20031;-76
2021/04/06 13:28:10;;;;;;;2.78;1.58;;;;;;;;;;5079258;28;20043;-76
2021/04/06 13:30:36;;;;;;;7.78;1.58;;;;;;;;;;5069388;28;20031;-75
2021/04/06 13:33:03;;;;;;;6.20;1.50;;;;;;;;;;5070702;28;20116;-75
2021/04/06 13:35:29;;;;;;;3.95;1.50;;;;;;;;;;5052195;28;20024;-76
2021/04/06 13:37:55;;;;;;;2.60;1.48;;;;;;;;;;5074108;28;20024;-75
2021/04/06 13:40:22;;;;;;;5.13;1.20;;;;;;;;;;5083847;28;20103;-75
2021/04/06 13:42:48;;;;;;;6.47;1.50;;;;;;;;;;5081131;28;20040;-76
2021/04/06 13:45:16;;;;;;;8.85;1.75;;;;;;;;;;5085110;28;20471;-76
2021/04/06 13:47:45;;;;;;;4.05;1.23;;;;;;;;;;5094660;28;20502;-75
2021/04/06 13:50:12;;;;;;;4.30;1.73;;;;;;;;;;5065197;28;20020;-76
2021/04/06 13:52:38;;;;;;;8.27;1.60;;;;;;;;;;5095311;28;20035;-75
2021/04/06 13:55:05;;;;;;;5.03;1.50;;;;;;;;;;5084304;28;20604;-75
2021/04/06 13:57:32;;;;;;;5.00;1.40;;;;;;;;;;5063293;28;20035;-76
2021/04/06 13:59:58;;;;;;;6.68;1.52;;;;;;;;;;5084061;28;20013;-73
2021/04/06 14:02:24;;;;;;;4.43;1.23;;;;;;;;;;5075889;28;20032;-75
2021/04/06 14:04:50;;;;;;;3.90;1.50;;;;;;;;;;5092555;28;20079;-75
2021/04/06 14:07:16;;;;;;;5.90;1.60;;;;;;;;;;5084113;28;20047;-76
2021/04/06 14:09:42;;;;;;;1.33;1.20;;;;;;;;;;5096117;28;20727;-76
2021/04/06 14:12:08;;;;;;;4.82;1.27;;;;;;;;;;5089262;28;20031;-75
2021/04/06 14:14:34;;;;;;;5.65;1.05;;;;;;;;;;5090293;28;20123;-76
2021/04/06 14:17:01;;;;;;;3.15;1.40;;;;;;;;;;5081366;28;20783;-74
2021/04/06 14:19:27;;;;;;;5.32;1.52;;;;;;;;;;5080782;28;20043;-75
2021/04/06 14:21:53;;;;;;;4.22;1.50;;;;;;;;;;5082195;28;20044;-75
2021/04/06 14:24:19;;;;;;;5.75;1.30;;;;;;;;;;5093133;28;20463;-75
2021/04/06 14:26:45;;;;;;;5.03;1.20;;;;;;;;;;5070655;28;20032;-75
2021/04/06 14:29:11;;;;;;;6.55;1.63;;;;;;;;;;5092159;28;20035;-76
2021/04/06 14:31:38;;;;;;;7.50;1.33;;;;;;;;;;5081025;28;20008;-76
2021/04/06 14:34:05;;;;;;;2.17;1.20;;;;;;;;;;5085848;28;20020;-75
2021/04/06 14:36:31;;;;;;;1.70;1.08;;;;;;;;;;5080427;28;20029;-76
2021/04/06 14:38:57;;;;;;;5.03;1.55;;;;;;;;;;5067819;28;20024;-75
2021/04/06 14:41:23;;;;;;;6.85;1.90;;;;;;;;;;5092448;28;20036;-76
2021/04/06 14:43:50;;;;;;;5.72;1.40;;;;;;;;;;5091150;28;20035;-75
2021/04/06 14:46:16;;;;;;;2.10;1.20;;;;;;;;;;5091598;28;20419;-75
2021/04/06 14:48:46;;;;;;;5.25;1.27;;;;;;;;;;5086759;28;20032;-75